Terminal Aerodrome Forecast
Issued by NWS

Home | Current Version | Previous Version | Text Only | Print | Product List | Glossary On
Versions: 1 2 3 4 5 6 7 8 9 10 11 12 13 14 15 16 17 18 19 20 21 22 23 24 25 26 27 28 29 30 31 32 33 34 35 36 37 38 39 40
000
FTUS43 KDLH 051736
TAFBRD
TAF
KBRD 051736Z 0518/0618 12007KT P6SM SCT005
      TEMPO 0518/0521 4SM -SN BR BKN015
     FM052100 13010KT 4SM -SN BR OVC015
      TEMPO 0521/0524 2SM -SN BR OVC010
     FM060000 15009KT 3SM -SN BR OVC015
     FM060800 24012KT P6SM VCSH OVC020
     FM061400 25011G20KT P6SM VCSH OVC025=

USA.gov is the U.S. government's official web portal to all federal, state and local government web resources and services.